UBBB/BAK METAR and TAF weather

Enter ICAO airport designator
Station Type Date Time Source
UBBB METAR 2019/10/15 22:00 UTC NOAA

UBBB 152200Z 18006KT CAVOK 15/13 Q1020 R88/CLRD// NOSIG


Station Type Date Time Source
UBBB Decoded METAR 2019/10/15 22:00 UTC NOAA

Baku / Bine Airport, Azerbaijan (UBBB) 40-27N 050-04E -1M
Oct 15, 2019 - 06:00 PM EDT / 2019.10.15 2200 UTC
Wind: from the S (180 degrees) at 7 MPH (6 KT):0
Visibility: greater than 7 mile(s):0
Temperature: 59 F (15 C)
Dew Point: 55 F (13 C)
Relative Humidity: 87%
Pressure (altimeter): 30.12 in. Hg (1020 hPa)
ob: UBBB 152200Z 18006KT CAVOK 15/13 Q1020 R88/CLRD// NOSIG
cycle: 22

Station Type Date Time Source
UBBB TAF 2019/10/15 18:06 UTC NOAA

TAF TAF UBBB 151703Z 1518/1618 18006KT CAVOK TX22/1611Z TN15/1602Z
TEMPO 1521/1604 3000 BR SCT003
BECMG 1608/1610 34010KT SCT020 SCT100

Example: see airport list